Time;durP1;ratioP1;P1;durP2;ratioP2;P2;SDS_P1;SDS_P2;PMS_P1;PMS_P2;Temp;Humidity;BMP_temperature;BMP_pressure;BME280_temperature;BME280_humidity;BME280_pressure;Samples;Min_cycle;Max_cycle;Signal;HPM_P1;HPM_P2
2023/06/22 00:01:59;;;;;;;7.82;5.03;;;;;;;19.64;100.00;100966.38;5197294;28;20052;-76
2023/06/22 00:04:29;;;;;;;10.38;5.53;;;;;;;19.51;100.00;100955.75;5192534;28;20029;-72
2023/06/22 00:06:59;;;;;;;8.10;4.80;;;;;;;19.35;100.00;100965.66;5194195;28;20029;-75
2023/06/22 00:09:31;;;;;;;7.57;5.45;;;;;;;19.24;100.00;100968.16;5195921;28;20041;-71
2023/06/22 00:12:01;;;;;;;7.82;5.75;;;;;;;19.39;100.00;100956.53;5193529;28;20033;-75
2023/06/22 00:14:32;;;;;;;8.65;5.78;;;;;;;19.26;100.00;100960.13;5196150;28;20041;-76
2023/06/22 00:17:02;;;;;;;8.90;5.68;;;;;;;19.15;100.00;100958.13;5196644;28;20399;-75
2023/06/22 00:19:35;;;;;;;13.25;6.20;;;;;;;19.20;100.00;100958.69;5196503;28;20029;-76
2023/06/22 00:22:05;;;;;;;8.98;5.75;;;;;;;19.22;100.00;100964.75;5193265;28;20124;-75
2023/06/22 00:24:36;;;;;;;8.75;5.97;;;;;;;19.46;100.00;100962.31;5197301;28;20108;-76
2023/06/22 00:27:06;;;;;;;9.50;5.97;;;;;;;19.20;100.00;100965.78;5196741;28;20030;-74
2023/06/22 00:29:36;;;;;;;9.77;5.45;;;;;;;19.07;100.00;100973.66;5194454;28;20025;-75
2023/06/22 00:32:07;;;;;;;8.73;5.15;;;;;;;19.10;100.00;100968.16;5195072;28;20037;-75
2023/06/22 00:34:37;;;;;;;8.20;5.05;;;;;;;19.47;100.00;100970.13;5177090;28;20182;-75
2023/06/22 00:37:16;;;;;;;7.57;5.07;;;;;;;19.35;100.00;100976.25;5195437;28;20067;-76
2023/06/22 00:39:46;;;;;;;8.13;5.57;;;;;;;19.58;100.00;100980.91;5174677;28;20049;-74
2023/06/22 00:42:17;;;;;;;7.47;5.47;;;;;;;19.49;100.00;100984.19;5184392;28;20029;-71
2023/06/22 00:44:48;;;;;;;8.10;5.65;;;;;;;19.75;100.00;100988.59;5195112;28;20029;-72
2023/06/22 00:47:18;;;;;;;12.18;6.18;;;;;;;19.59;100.00;100987.91;5191468;28;20087;-74
2023/06/22 00:49:51;;;;;;;7.68;5.55;;;;;;;19.67;100.00;100992.72;5194876;28;20505;-71
2023/06/22 00:52:28;;;;;;;7.60;5.47;;;;;;;19.63;100.00;100985.91;5196471;28;20073;-75
2023/06/22 00:55:01;;;;;;;7.65;5.45;;;;;;;19.64;100.00;100999.06;5190612;28;20330;-74
2023/06/22 00:57:32;;;;;;;9.95;5.30;;;;;;;19.29;100.00;101000.50;5177976;28;20033;-75
2023/06/22 01:00:05;;;;;;;9.57;4.88;;;;;;;19.18;100.00;100989.75;5193549;28;20463;-75
2023/06/22 01:02:36;;;;;;;10.15;5.28;;;;;;;18.93;100.00;100986.09;5173253;28;20532;-74
2023/06/22 01:05:07;;;;;;;8.85;5.00;;;;;;;18.94;100.00;100987.78;5194881;28;20025;-74
2023/06/22 01:07:48;;;;;;;11.32;5.38;;;;;;;18.91;100.00;100982.69;5195592;28;20029;-75
2023/06/22 01:10:40;;;;;;;12.25;5.55;;;;;;;18.95;100.00;100971.78;5191081;28;20029;-74
2023/06/22 01:13:32;;;;;;;9.52;5.60;;;;;;;18.83;100.00;100971.69;5175232;28;20114;-75
2023/06/22 01:16:07;;;;;;;11.98;5.72;;;;;;;18.60;100.00;100968.78;5174148;28;20029;-75
2023/06/22 01:18:41;;;;;;;8.63;5.65;;;;;;;18.49;100.00;100960.69;5177719;28;20083;-76
2023/06/22 01:21:17;;;;;;;12.55;6.07;;;;;;;18.69;100.00;100957.63;5196012;28;20029;-75
2023/06/22 01:23:59;;;;;;;10.65;6.18;;;;;;;18.77;100.00;100950.91;5192141;28;20039;-75
2023/06/22 01:26:47;;;;;;;12.77;6.00;;;;;;;18.96;100.00;100952.28;5195347;28;20111;-75
2023/06/22 01:29:18;;;;;;;10.23;5.47;;;;;;;19.06;100.00;100955.19;5195121;28;20495;-76
2023/06/22 01:31:50;;;;;;;11.13;5.00;;;;;;;18.97;100.00;100958.44;5177839;28;20502;-70
2023/06/22 01:34:21;;;;;;;8.35;5.72;;;;;;;19.05;100.00;100954.34;5177616;28;20494;-74
2023/06/22 01:36:52;;;;;;;9.90;5.05;;;;;;;18.97;100.00;100953.13;5192637;28;20052;-74
2023/06/22 01:39:23;;;;;;;9.95;5.05;;;;;;;18.72;100.00;100946.84;5172715;28;20136;-71
2023/06/22 01:41:54;;;;;;;13.07;5.43;;;;;;;18.44;100.00;100942.44;5195086;28;20009;-74
2023/06/22 01:44:25;;;;;;;10.02;5.82;;;;;;;18.71;100.00;100937.19;5195659;28;20025;-72
2023/06/22 01:46:56;;;;;;;10.18;6.03;;;;;;;18.76;100.00;100943.91;5176744;28;20614;-73
2023/06/22 01:49:27;;;;;;;9.75;6.32;;;;;;;18.79;100.00;100935.78;5177887;28;20120;-75
2023/06/22 01:51:58;;;;;;;11.15;6.68;;;;;;;18.70;100.00;100936.34;5190677;28;20434;-75
2023/06/22 01:54:29;;;;;;;8.40;5.82;;;;;;;18.78;100.00;100942.03;5195293;28;20110;-75
2023/06/22 01:57:00;;;;;;;8.57;5.88;;;;;;;18.69;100.00;100941.75;5192059;28;20360;-75
2023/06/22 01:59:43;;;;;;;8.07;5.60;;;;;;;18.72;100.00;100941.56;5190618;28;20044;-73
2023/06/22 02:02:16;;;;;;;11.15;6.72;;;;;;;18.65;100.00;100934.94;5195403;28;20383;-74
2023/06/22 02:04:53;;;;;;;11.50;6.50;;;;;;;18.69;100.00;100937.28;5193054;28;20033;-74
2023/06/22 02:07:29;;;;;;;13.05;6.88;;;;;;;18.47;100.00;100928.13;5195068;28;20226;-73
2023/06/22 02:10:01;;;;;;;14.13;6.85;;;;;;;18.54;100.00;100926.81;5188909;28;20077;-75
2023/06/22 02:12:34;;;;;;;11.93;6.35;;;;;;;18.91;100.00;100935.84;5177720;28;20025;-76
2023/06/22 02:15:05;;;;;;;11.98;7.55;;;;;;;18.93;100.00;100923.34;5194612;28;20084;-74
2023/06/22 02:17:36;;;;;;;10.13;6.60;;;;;;;18.96;100.00;100924.94;5194743;28;20113;-73
2023/06/22 02:20:13;;;;;;;11.30;7.32;;;;;;;18.97;100.00;100926.66;5195078;28;20555;-75
2023/06/22 02:22:43;;;;;;;9.85;6.57;;;;;;;19.01;100.00;100929.00;5192752;28;20025;-74
2023/06/22 02:25:14;;;;;;;11.75;6.80;;;;;;;19.15;100.00;100930.75;5195577;28;20017;-74
2023/06/22 02:27:45;;;;;;;9.07;6.75;;;;;;;19.24;100.00;100940.81;5174751;28;20343;-74
2023/06/22 02:30:15;;;;;;;11.05;6.72;;;;;;;19.36;100.00;100934.69;5177027;28;20470;-75
2023/06/22 02:32:46;;;;;;;9.88;6.60;;;;;;;19.26;100.00;100930.94;5169313;28;20084;-74
2023/06/22 02:35:16;;;;;;;9.75;6.57;;;;;;;19.39;100.00;100943.28;5188362;28;20108;-75
2023/06/22 02:37:46;;;;;;;9.13;6.32;;;;;;;19.33;100.00;100942.84;5192670;28;20124;-76
2023/06/22 02:40:17;;;;;;;8.32;6.05;;;;;;;19.46;100.00;100944.56;5190280;28;20497;-75
2023/06/22 02:42:47;;;;;;;9.65;6.65;;;;;;;19.48;100.00;100949.78;5188080;28;20065;-75
2023/06/22 02:45:18;;;;;;;10.48;7.00;;;;;;;19.47;100.00;100950.75;5188973;28;20067;-76
2023/06/22 02:47:48;;;;;;;10.30;6.60;;;;;;;19.48;100.00;100947.13;5192454;28;20645;-71
2023/06/22 02:50:19;;;;;;;9.18;6.72;;;;;;;19.51;100.00;100949.59;5196736;28;20028;-75
2023/06/22 02:52:49;;;;;;;10.30;6.70;;;;;;;19.65;100.00;100953.00;5195914;28;20067;-71
2023/06/22 02:55:19;;;;;;;11.77;6.85;;;;;;;19.60;100.00;100955.13;5192219;28;20087;-74
2023/06/22 02:57:52;;;;;;;10.98;6.63;;;;;;;19.55;100.00;100966.97;5196115;28;20414;-74
2023/06/22 03:00:23;;;;;;;10.55;7.05;;;;;;;19.35;100.00;100960.34;5195064;28;20029;-74
2023/06/22 03:02:53;;;;;;;9.27;6.57;;;;;;;19.34;100.00;100969.25;5194218;28;20095;-75
2023/06/22 03:05:24;;;;;;;8.65;6.22;;;;;;;19.22;100.00;100970.06;5196698;28;20041;-74
2023/06/22 03:07:54;;;;;;;10.65;5.80;;;;;;;19.22;100.00;100971.84;5195640;28;20029;-75
2023/06/22 03:10:24;;;;;;;10.85;6.88;;;;;;;19.33;100.00;100988.78;5196780;28;20324;-75
2023/06/22 03:12:55;;;;;;;11.43;6.90;;;;;;;19.01;100.00;100997.91;5197908;28;20125;-74
2023/06/22 03:15:25;;;;;;;12.40;6.57;;;;;;;19.24;100.00;100996.47;5194593;28;20035;-74
2023/06/22 03:17:58;;;;;;;9.63;6.38;;;;;;;19.23;100.00;100994.75;5195532;28;20617;-75
2023/06/22 03:20:33;;;;;;;11.45;6.85;;;;;;;19.25;100.00;100996.34;5195273;28;20507;-74
2023/06/22 03:23:04;;;;;;;10.63;6.80;;;;;;;19.29;100.00;100992.53;5195921;28;20037;-75
2023/06/22 03:25:35;;;;;;;10.63;6.60;;;;;;;19.10;100.00;100999.94;5196805;28;20030;-75
2023/06/22 03:28:05;;;;;;;10.95;6.18;;;;;;;19.10;100.00;100999.13;5191599;28;20487;-75
2023/06/22 03:30:36;;;;;;;11.02;7.40;;;;;;;19.25;100.00;101008.78;5193807;28;20025;-75
2023/06/22 03:33:06;;;;;;;11.13;6.45;;;;;;;19.50;100.00;101012.38;5180204;28;20619;-75
2023/06/22 03:35:36;;;;;;;9.32;6.35;;;;;;;19.41;100.00;101020.94;5197566;28;20270;-74
2023/06/22 03:38:07;;;;;;;13.00;6.53;;;;;;;19.51;100.00;101014.09;5196470;28;20037;-74
2023/06/22 03:40:37;;;;;;;9.75;6.40;;;;;;;19.64;100.00;101007.00;5179366;28;20029;-74
2023/06/22 03:43:07;;;;;;;11.55;6.22;;;;;;;19.67;100.00;101004.19;5195384;28;20196;-75
2023/06/22 03:45:37;;;;;;;9.73;6.65;;;;;;;19.63;100.00;101009.78;5196341;28;20041;-75
2023/06/22 03:48:08;;;;;;;11.52;6.57;;;;;;;19.59;100.00;101013.59;5176201;28;20025;-75
2023/06/22 03:50:38;;;;;;;14.30;6.90;;;;;;;19.18;100.00;101013.63;5191783;28;20029;-75
2023/06/22 03:53:08;;;;;;;14.40;6.97;;;;;;;19.44;100.00;101025.19;5197232;28;20037;-74
2023/06/22 03:55:48;;;;;;;11.88;6.50;;;;;;;19.22;100.00;101017.75;5196268;28;20029;-75
2023/06/22 03:58:20;;;;;;;14.48;7.05;;;;;;;19.43;100.00;101016.38;5192559;28;20021;-75
2023/06/22 04:00:52;;;;;;;10.40;5.90;;;;;;;19.59;100.00;101010.94;5196888;28;20029;-74
2023/06/22 04:03:22;;;;;;;13.25;5.97;;;;;;;19.47;100.00;101012.56;5197872;28;20029;-75
2023/06/22 04:05:52;;;;;;;15.00;6.97;;;;;;;19.47;100.00;101012.56;5191723;28;20233;-75
2023/06/22 04:08:23;;;;;;;22.85;7.65;;;;;;;19.24;100.00;101013.22;5186082;28;20280;-75
2023/06/22 04:10:53;;;;;;;12.48;6.82;;;;;;;19.23;100.00;101006.22;5194915;28;20492;-75
2023/06/22 04:13:23;;;;;;;13.43;6.53;;;;;;;19.18;100.00;100997.72;5197121;28;20156;-75
2023/06/22 04:15:54;;;;;;;10.75;6.60;;;;;;;19.24;100.00;100993.81;5196606;28;20475;-75
2023/06/22 04:18:24;;;;;;;13.05;6.63;;;;;;;19.43;100.00;100984.56;5198093;28;20034;-72
2023/06/22 04:20:54;;;;;;;9.68;6.47;;;;;;;19.58;100.00;100982.72;5195579;28;20495;-75
2023/06/22 04:23:25;;;;;;;14.95;6.68;;;;;;;19.64;100.00;100985.78;5195182;28;20175;-75
2023/06/22 04:25:56;;;;;;;10.70;6.38;;;;;;;19.68;100.00;100984.66;5192817;28;20029;-75
2023/06/22 04:28:26;;;;;;;12.38;6.38;;;;;;;19.83;100.00;100985.44;5190439;28;20033;-75
2023/06/22 04:30:58;;;;;;;13.55;6.70;;;;;;;19.92;100.00;100985.66;5195910;28;20025;-76
2023/06/22 04:33:31;;;;;;;9.80;6.70;;;;;;;20.05;100.00;100983.91;5196117;28;20033;-75
2023/06/22 04:36:03;;;;;;;11.20;6.10;;;;;;;20.23;100.00;100982.66;5196731;28;20401;-75
2023/06/22 04:38:34;;;;;;;13.18;6.57;;;;;;;20.33;100.00;100978.41;5196371;28;20040;-75
2023/06/22 04:41:04;;;;;;;9.88;6.25;;;;;;;20.44;100.00;100981.16;5193765;28;20388;-75
2023/06/22 04:43:34;;;;;;;12.15;6.88;;;;;;;20.58;100.00;100973.09;5195805;28;20045;-76
2023/06/22 04:46:05;;;;;;;9.95;6.00;;;;;;;20.60;100.00;100976.50;5189414;28;20069;-72
2023/06/22 04:48:35;;;;;;;9.95;5.38;;;;;;;21.44;100.00;100975.66;5171855;28;20403;-76
2023/06/22 04:51:08;;;;;;;8.60;5.90;;;;;;;21.32;100.00;100976.56;5195474;28;20082;-75
2023/06/22 04:53:41;;;;;;;10.30;5.38;;;;;;;21.15;100.00;100966.28;5197025;28;20785;-74
2023/06/22 04:56:11;;;;;;;8.93;5.80;;;;;;;21.35;100.00;100966.53;5178190;28;20025;-75
2023/06/22 04:58:42;;;;;;;10.18;5.68;;;;;;;21.41;100.00;100974.06;5178001;28;20025;-72
2023/06/22 05:01:12;;;;;;;7.47;5.63;;;;;;;21.57;100.00;100974.63;5191677;28;20029;-75
2023/06/22 05:03:42;;;;;;;11.40;5.57;;;;;;;21.65;100.00;100963.44;5190270;28;20026;-75
2023/06/22 05:06:14;;;;;;;11.70;5.85;;;;;;;21.47;100.00;100964.78;5189552;28;20120;-76
2023/06/22 05:08:44;;;;;;;8.50;5.35;;;;;;;21.64;100.00;100962.63;5190041;28;20021;-71
2023/06/22 05:11:14;;;;;;;6.88;4.88;;;;;;;21.75;99.37;100961.81;5189866;28;20024;-75
2023/06/22 05:13:45;;;;;;;10.30;5.50;;;;;;;21.86;98.80;100964.47;5196675;28;20026;-71
2023/06/22 05:16:15;;;;;;;8.35;5.13;;;;;;;21.74;99.14;100968.09;5195861;28;20352;-75
2023/06/22 05:18:45;;;;;;;7.18;4.95;;;;;;;21.80;96.57;100964.97;5192744;28;20086;-74
2023/06/22 05:21:15;;;;;;;10.45;4.88;;;;;;;21.74;97.11;100963.59;5188085;28;20017;-75
2023/06/22 05:23:46;;;;;;;7.53;4.80;;;;;;;21.79;98.42;100965.94;5183433;28;20037;-73
2023/06/22 05:26:17;;;;;;;7.50;5.10;;;;;;;21.93;98.12;100965.72;5187897;28;20689;-75
2023/06/22 05:28:48;;;;;;;9.00;4.97;;;;;;;21.97;98.06;100957.41;5187913;28;20541;-72
2023/06/22 05:31:21;;;;;;;7.38;4.78;;;;;;;22.01;98.78;100964.19;5191176;28;20053;-75
2023/06/22 05:33:55;;;;;;;7.30;4.50;;;;;;;22.09;95.31;100968.94;5191024;28;20025;-75
2023/06/22 05:36:25;;;;;;;7.45;4.47;;;;;;;21.92;96.73;100969.38;5195737;28;20128;-72
2023/06/22 05:38:56;;;;;;;5.80;4.20;;;;;;;22.02;95.78;100968.53;5193753;28;20124;-75
2023/06/22 05:41:27;;;;;;;6.53;3.88;;;;;;;22.10;95.54;100970.63;5192452;28;20275;-75
2023/06/22 05:43:57;;;;;;;6.88;3.90;;;;;;;22.24;93.93;100962.44;5190212;28;20021;-75
2023/06/22 05:46:27;;;;;;;5.80;4.25;;;;;;;22.57;91.58;100959.81;5192809;28;20026;-75
2023/06/22 05:48:58;;;;;;;6.57;4.40;;;;;;;22.62;90.53;100955.81;5193686;28;20045;-74
2023/06/22 05:51:28;;;;;;;10.13;4.55;;;;;;;22.84;90.49;100948.66;5195382;28;20373;-74
2023/06/22 05:53:58;;;;;;;7.20;3.92;;;;;;;22.66;91.78;100943.09;5192874;28;20055;-75
2023/06/22 05:56:28;;;;;;;6.22;3.90;;;;;;;22.82;91.85;100939.09;5192860;28;20033;-73
2023/06/22 05:58:59;;;;;;;8.60;4.25;;;;;;;22.95;90.74;100940.66;5192498;28;20067;-75
2023/06/22 06:01:30;;;;;;;7.50;4.03;;;;;;;22.98;91.67;100945.72;5192917;28;20030;-75
2023/06/22 06:04:04;;;;;;;6.90;4.53;;;;;;;22.99;93.06;100946.59;5187728;28;20053;-77
2023/06/22 06:06:36;;;;;;;6.13;4.22;;;;;;;22.79;94.95;100944.66;5179663;28;20514;-73
2023/06/22 06:09:07;;;;;;;6.72;4.13;;;;;;;22.78;95.91;100950.97;5183605;28;20025;-74
2023/06/22 06:11:38;;;;;;;5.82;3.90;;;;;;;23.06;94.29;100942.44;5185521;28;20381;-74
2023/06/22 06:14:08;;;;;;;7.25;3.80;;;;;;;23.18;94.92;100946.81;5173608;28;20025;-75
2023/06/22 06:16:38;;;;;;;5.37;3.80;;;;;;;22.91;97.21;100951.69;5186698;28;20033;-75
2023/06/22 06:19:09;;;;;;;5.95;4.07;;;;;;;22.73;97.68;100956.69;5183989;28;21691;-75
2023/06/22 06:21:39;;;;;;;5.93;3.80;;;;;;;23.06;95.41;100947.78;5189428;28;20114;-75
2023/06/22 06:24:09;;;;;;;7.67;3.70;;;;;;;23.24;93.83;100952.50;5198186;28;20690;-75
2023/06/22 06:26:39;;;;;;;6.57;3.53;;;;;;;23.23;93.48;100955.28;5192255;28;20828;-76
2023/06/22 06:29:10;;;;;;;6.63;3.92;;;;;;;23.08;91.92;100946.69;5194376;28;20280;-76
2023/06/22 06:31:40;;;;;;;7.27;3.70;;;;;;;23.00;91.99;100943.78;5195025;28;20148;-76
2023/06/22 06:34:10;;;;;;;6.63;3.70;;;;;;;22.99;93.24;100944.75;5192419;28;20293;-74
2023/06/22 06:36:41;;;;;;;5.35;4.15;;;;;;;22.88;93.69;100943.94;5188647;28;20710;-74
2023/06/22 06:39:11;;;;;;;6.07;3.90;;;;;;;22.80;94.44;100946.34;5191257;28;20033;-77
2023/06/22 06:41:42;;;;;;;10.07;4.25;;;;;;;22.93;93.17;100937.25;5194446;28;20285;-75
2023/06/22 06:44:12;;;;;;;7.35;3.70;;;;;;;22.93;94.69;100939.06;5186509;28;20483;-75
2023/06/22 06:46:42;;;;;;;6.13;3.85;;;;;;;23.04;94.11;100934.56;5192819;28;20541;-76
2023/06/22 06:51:55;;;;;;;6.10;4.10;;;;;;;23.12;96.45;100942.81;5168048;28;20112;-70
2023/06/22 06:54:27;;;;;;;6.32;4.45;;;;;;;23.23;95.87;100940.13;5167731;28;20034;-72
2023/06/22 06:56:57;;;;;;;5.80;4.15;;;;;;;23.24;98.56;100943.66;5166330;28;20630;-74
2023/06/22 06:59:30;;;;;;;6.13;4.70;;;;;;;23.20;98.73;100943.03;5168566;28;20061;-72
2023/06/22 07:02:00;;;;;;;5.15;3.97;;;;;;;23.14;98.06;100942.69;5172951;28;20276;-73
2023/06/22 07:04:30;;;;;;;6.47;3.90;;;;;;;23.36;98.26;100942.66;5176692;28;20030;-73
2023/06/22 07:07:02;;;;;;;6.90;3.90;;;;;;;23.64;97.04;100950.03;5173752;28;20025;-74
2023/06/22 07:09:32;;;;;;;5.15;4.05;;;;;;;23.52;93.16;100954.59;5170234;28;20719;-72
2023/06/22 07:12:03;;;;;;;5.80;4.15;;;;;;;23.40;92.31;100952.09;5156920;28;20028;-74
2023/06/22 07:14:33;;;;;;;6.75;4.13;;;;;;;23.60;92.15;100954.81;5170203;28;20169;-73
2023/06/22 07:17:04;;;;;;;9.17;4.70;;;;;;;23.70;91.61;100944.22;5172000;28;20030;-73
2023/06/22 07:19:34;;;;;;;7.20;4.20;;;;;;;23.84;90.80;100947.44;5174935;28;20406;-72
2023/06/22 07:22:05;;;;;;;5.63;4.00;;;;;;;23.86;91.36;100948.16;5176765;28;20033;-73
2023/06/22 07:24:35;;;;;;;7.38;4.75;;;;;;;23.80;88.38;100950.44;5178047;28;20025;-71
2023/06/22 07:27:06;;;;;;;8.65;4.68;;;;;;;23.60;88.59;100952.13;5175432;28;20025;-73
2023/06/22 07:29:37;;;;;;;6.22;4.60;;;;;;;24.05;90.25;100948.28;5164247;28;20083;-73
2023/06/22 07:32:08;;;;;;;10.23;5.03;;;;;;;24.38;89.12;100945.38;5173871;28;20026;-73
2023/06/22 07:34:38;;;;;;;6.65;5.00;;;;;;;;;;5173259;28;20633;-73
2023/06/22 07:37:09;;;;;;;9.00;5.10;;;;;;;24.33;90.06;100936.06;5171994;28;20029;-73
2023/06/22 07:39:39;;;;;;;7.88;5.07;;;;;;;24.25;89.94;100931.38;5174738;28;20369;-73
2023/06/22 07:42:09;;;;;;;6.70;4.50;;;;;;;24.63;88.31;100930.75;5174747;28;20447;-73
2023/06/22 07:44:40;;;;;;;8.02;4.88;;;;;;;24.55;87.74;100934.09;5176347;28;20410;-73
2023/06/22 07:47:10;;;;;;;8.87;5.07;;;;;;;24.56;89.78;100927.78;5165844;28;20033;-70
2023/06/22 07:49:40;;;;;;;9.63;4.63;;;;;;;24.74;88.19;100928.81;5174727;28;20272;-74
2023/06/22 07:52:11;;;;;;;6.45;4.65;;;;;;;24.97;88.27;100933.00;5170778;28;20168;-73
2023/06/22 07:54:41;;;;;;;8.85;5.53;;;;;;;25.26;85.23;100929.44;5172779;28;20100;-73
2023/06/22 07:57:12;;;;;;;7.77;5.17;;;;;;;25.94;83.39;100917.72;5173575;28;20030;-72
2023/06/22 07:59:42;;;;;;;7.43;5.13;;;;;;;26.15;81.11;100918.41;5173939;28;20367;-72
2023/06/22 08:02:12;;;;;;;6.95;5.38;;;;;;;26.73;79.92;100917.22;5174498;28;20044;-72
2023/06/22 08:04:43;;;;;;;6.95;5.15;;;;;;;28.24;75.05;100915.19;5159294;28;20033;-73
2023/06/22 08:07:13;;;;;;;7.00;5.50;;;;;;;28.79;71.85;100912.00;5171928;28;20395;-74
2023/06/22 08:09:48;;;;;;;10.00;5.85;;;;;;;28.41;71.76;100927.78;5155894;28;20312;-73
2023/06/22 08:12:18;;;;;;;7.93;5.50;;;;;;;27.97;73.94;100913.50;5170172;28;20034;-73
2023/06/22 08:14:50;;;;;;;8.95;6.18;;;;;;;27.24;77.10;100913.84;5171719;28;20104;-73
2023/06/22 08:17:20;;;;;;;10.65;6.22;;;;;;;26.66;78.53;100925.03;5153836;28;20029;-73
2023/06/22 08:19:50;;;;;;;8.40;6.10;;;;;;;26.90;77.47;100918.13;5176082;28;20029;-73
2023/06/22 08:22:21;;;;;;;8.95;5.85;;;;;;;26.72;79.46;100924.41;5156792;28;20346;-73
2023/06/22 08:24:51;;;;;;;8.27;6.65;;;;;;;26.80;78.53;100919.16;5166452;28;20046;-72
2023/06/22 08:27:23;;;;;;;11.20;6.40;;;;;;;26.88;77.68;100916.56;5166008;28;20487;-73
2023/06/22 08:29:58;;;;;;;8.93;6.53;;;;;;;27.01;77.81;100914.38;5171078;28;20785;-73
2023/06/22 08:32:28;;;;;;;8.55;6.32;;;;;;;27.40;78.48;100913.13;5172789;28;20120;-72
2023/06/22 08:34:58;;;;;;;9.98;6.20;;;;;;;27.33;77.36;100922.81;5176277;28;20112;-73
2023/06/22 08:37:35;;;;;;;9.37;6.80;;;;;;;27.13;78.37;100924.78;5176152;28;20029;-72
2023/06/22 08:40:08;;;;;;;9.35;6.50;;;;;;;27.03;80.18;100923.97;5158220;28;20277;-71
2023/06/22 08:42:41;;;;;;;10.75;6.95;;;;;;;27.10;79.06;100917.03;5175015;28;20025;-72
2023/06/22 08:45:12;;;;;;;10.88;7.47;;;;;;;26.94;80.62;100924.88;5172433;28;20026;-73
2023/06/22 08:47:42;;;;;;;14.45;8.55;;;;;;;26.55;80.01;100922.53;5174060;28;20113;-73
2023/06/22 08:50:13;;;;;;;10.90;6.88;;;;;;;26.57;81.93;100922.38;5171221;28;20274;-72
2023/06/22 08:52:43;;;;;;;9.15;6.70;;;;;;;26.89;81.18;100916.44;5170375;28;20562;-72
2023/06/22 08:55:14;;;;;;;10.85;7.68;;;;;;;26.84;80.05;100921.41;5168530;28;20026;-73
2023/06/22 08:57:44;;;;;;;11.27;7.53;;;;;;;27.20;79.44;100911.59;5166828;28;20025;-73
2023/06/22 09:00:19;;;;;;;11.02;7.95;;;;;;;27.06;80.70;100920.13;5170552;28;20026;-73
2023/06/22 09:02:50;;;;;;;9.82;7.10;;;;;;;27.43;77.63;100912.84;5173344;28;20026;-72
2023/06/22 09:05:22;;;;;;;11.02;7.70;;;;;;;27.55;79.08;100912.47;5173017;28;20048;-74
2023/06/22 09:07:54;;;;;;;10.95;6.97;;;;;;;27.59;78.70;100903.09;5171527;28;20044;-74
2023/06/22 09:10:25;;;;;;;10.10;6.85;;;;;;;27.80;78.54;100902.81;5170779;28;20500;-73
2023/06/22 09:12:57;;;;;;;10.45;7.82;;;;;;;27.46;79.77;100902.63;5173637;28;20096;-73
2023/06/22 09:15:27;;;;;;;9.68;7.28;;;;;;;27.53;80.39;100910.91;5173555;28;20496;-72
2023/06/22 09:17:57;;;;;;;10.35;7.38;;;;;;;27.07;80.70;100909.25;5174388;28;20088;-73
2023/06/22 09:20:28;;;;;;;10.25;7.47;;;;;;;27.31;81.69;100896.09;5172338;28;20018;-74
2023/06/22 09:22:58;;;;;;;13.30;7.40;;;;;;;26.91;83.01;100895.66;5173065;28;20463;-73
2023/06/22 09:25:28;;;;;;;10.50;7.72;;;;;;;26.65;83.52;100888.47;5173954;28;20026;-72
2023/06/22 09:27:59;;;;;;;8.85;6.47;;;;;;;26.89;83.63;100884.22;5172211;28;20095;-73
2023/06/22 09:30:29;;;;;;;11.77;7.83;;;;;;;27.19;81.79;100873.19;5170987;28;20433;-73
2023/06/22 09:33:01;;;;;;;10.43;7.53;;;;;;;27.21;80.16;100864.97;5175640;28;20280;-73
2023/06/22 09:35:31;;;;;;;11.10;7.43;;;;;;;27.44;81.73;100874.25;5175383;28;20698;-73
2023/06/22 09:38:01;;;;;;;9.87;7.50;;;;;;;27.62;78.70;100859.78;5174745;28;20034;-73
2023/06/22 09:40:35;;;;;;;9.90;7.70;;;;;;;27.92;78.93;100850.50;5173582;28;20809;-73
2023/06/22 09:43:05;;;;;;;8.25;6.70;;;;;;;28.21;76.10;100848.28;5173055;28;20816;-73
2023/06/22 09:45:35;;;;;;;8.67;7.13;;;;;;;28.01;76.73;100847.69;5172703;28;20034;-72
2023/06/22 09:48:06;;;;;;;9.00;6.63;;;;;;;28.24;76.90;100838.06;5172040;28;20308;-73
2023/06/22 09:50:37;;;;;;;10.63;7.33;;;;;;;27.92;76.84;100851.31;5173431;28;20471;-71
2023/06/22 09:53:07;;;;;;;9.20;6.63;;;;;;;27.98;77.38;100847.97;5153980;28;22181;-73
2023/06/22 09:55:37;;;;;;;9.23;7.43;;;;;;;27.60;79.34;100848.34;5171417;28;20026;-73
2023/06/22 09:58:08;;;;;;;9.17;6.90;;;;;;;28.16;79.37;100847.94;5173551;28;20280;-73
2023/06/22 10:00:39;;;;;;;10.73;7.65;;;;;;;27.83;78.44;100854.09;5171149;28;20275;-73
2023/06/22 10:03:09;;;;;;;8.57;6.40;;;;;;;28.01;77.53;100853.06;5152482;28;20025;-73
2023/06/22 10:05:39;;;;;;;10.40;6.60;;;;;;;27.78;78.42;100859.13;5171679;28;20028;-73
2023/06/22 10:08:10;;;;;;;9.43;7.03;;;;;;;27.99;76.88;100843.47;5172348;28;20530;-73
2023/06/22 10:10:40;;;;;;;9.45;6.35;;;;;;;27.89;79.87;100843.56;5172493;28;20320;-72
2023/06/22 10:13:11;;;;;;;10.37;7.33;;;;;;;28.05;79.62;100834.75;5173003;28;20102;-73
2023/06/22 10:15:41;;;;;;;8.80;7.07;;;;;;;27.81;78.39;100843.50;5156801;28;20285;-72
2023/06/22 10:18:12;;;;;;;10.35;7.38;;;;;;;27.85;79.27;100839.53;5172008;28;20037;-73
2023/06/22 10:20:42;;;;;;;10.53;7.47;;;;;;;27.88;78.72;100836.50;5168211;28;20029;-73
2023/06/22 10:23:12;;;;;;;9.88;7.07;;;;;;;27.53;78.79;100833.03;5164195;28;20300;-71
2023/06/22 10:25:43;;;;;;;12.23;7.35;;;;;;;27.54;78.12;100838.25;5172412;28;20029;-73
2023/06/22 10:28:13;;;;;;;10.98;7.28;;;;;;;27.53;79.55;100844.63;5174240;28;20515;-72
2023/06/22 10:30:44;;;;;;;9.15;6.30;;;;;;;27.48;78.65;100841.53;5173380;28;20018;-73
2023/06/22 10:33:14;;;;;;;9.70;6.45;;;;;;;27.46;78.00;100845.41;5174064;28;20543;-71
2023/06/22 10:35:45;;;;;;;8.67;6.67;;;;;;;27.33;78.95;100851.19;5175237;28;20033;-73
2023/06/22 10:38:15;;;;;;;8.80;6.35;;;;;;;27.47;80.41;100839.84;5174525;28;20707;-72
2023/06/22 10:40:46;;;;;;;9.85;7.28;;;;;;;27.28;80.99;100845.41;5174832;28;20021;-73
2023/06/22 10:43:16;;;;;;;9.63;7.30;;;;;;;27.30;80.88;100840.72;5174260;28;20080;-71
2023/06/22 10:45:46;;;;;;;8.80;6.67;;;;;;;27.61;79.07;100831.25;5175032;28;20273;-71
2023/06/22 10:48:17;;;;;;;7.63;6.32;;;;;;;27.73;78.64;100835.41;5171829;28;20279;-71
2023/06/22 10:50:47;;;;;;;8.57;6.53;;;;;;;28.35;76.56;100820.84;5174727;28;20026;-72
2023/06/22 10:53:17;;;;;;;10.17;7.20;;;;;;;28.70;75.99;100820.63;5175508;28;20042;-72
2023/06/22 10:55:47;;;;;;;9.27;6.90;;;;;;;29.05;75.08;100815.84;5175531;28;20839;-72
2023/06/22 10:58:19;;;;;;;12.68;6.97;;;;;;;29.36;71.79;100798.88;5171970;28;20292;-72
2023/06/22 11:00:49;;;;;;;10.32;6.55;;;;;;;29.21;72.09;100794.34;5169456;28;20026;-71
2023/06/22 11:03:20;;;;;;;9.73;6.78;;;;;;;29.68;71.78;100792.63;5173399;28;20052;-72
2023/06/22 11:05:50;;;;;;;9.50;7.28;;;;;;;29.52;74.12;100788.13;5173377;28;20030;-72
2023/06/22 11:08:20;;;;;;;9.18;5.68;;;;;;;29.94;74.45;100787.88;5178319;28;20101;-73
2023/06/22 11:10:51;;;;;;;6.80;5.10;;;;;;;29.88;71.16;100789.38;5173282;28;20029;-74
2023/06/22 11:13:21;;;;;;;7.97;5.63;;;;;;;29.72;70.37;100792.13;5144189;28;20280;-72
2023/06/22 11:15:51;;;;;;;7.07;4.97;;;;;;;29.77;70.43;100787.03;5177056;28;20069;-73
2023/06/22 11:18:23;;;;;;;7.63;5.57;;;;;;;29.68;69.56;100787.22;5172101;28;20113;-73
2023/06/22 11:20:53;;;;;;;7.35;5.40;;;;;;;30.18;70.20;100787.81;5167738;28;20277;-73
2023/06/22 11:23:25;;;;;;;7.27;5.30;;;;;;;29.98;68.21;100787.34;5176675;28;20087;-73
2023/06/22 11:25:56;;;;;;;6.53;5.03;;;;;;;30.18;69.70;100782.41;5151343;28;20276;-73
2023/06/22 11:28:27;;;;;;;6.70;5.15;;;;;;;30.29;68.91;100782.03;5149156;28;20515;-74
2023/06/22 11:30:57;;;;;;;7.47;5.65;;;;;;;30.30;68.97;100783.72;5166246;28;20374;-73
2023/06/22 11:33:27;;;;;;;7.10;5.50;;;;;;;29.77;68.61;100770.88;5167224;28;20097;-73
2023/06/22 11:35:58;;;;;;;8.10;4.53;;;;;;;29.60;68.66;100765.69;5173341;28;20280;-72
2023/06/22 11:38:28;;;;;;;6.72;4.55;;;;;;;29.42;68.33;100768.53;5176367;28;20369;-72
2023/06/22 11:40:59;;;;;;;6.78;5.25;;;;;;;29.47;70.96;100763.53;5176704;28;20057;-73